sensor_id;sensor_type;location;lat;lon;timestamp;temperature;humidity
46932;DHT22;32670;51.464;11.964;2023-12-14T00:02:15;22.60;53.20
46932;DHT22;32670;51.464;11.964;2023-12-14T00:04:41;22.60;53.20
46932;DHT22;32670;51.464;11.964;2023-12-14T00:07:06;22.60;53.30
46932;DHT22;32670;51.464;11.964;2023-12-14T00:09:31;22.60;53.40
46932;DHT22;32670;51.464;11.964;2023-12-14T00:11:57;22.60;53.40
46932;DHT22;32670;51.464;11.964;2023-12-14T00:14:22;22.60;53.50
46932;DHT22;32670;51.464;11.964;2023-12-14T00:16:48;22.60;53.50
46932;DHT22;32670;51.464;11.964;2023-12-14T00:19:14;22.60;53.60
46932;DHT22;32670;51.464;11.964;2023-12-14T00:21:40;22.60;53.60
46932;DHT22;32670;51.464;11.964;2023-12-14T00:24:06;22.60;53.70
46932;DHT22;32670;51.464;11.964;2023-12-14T00:26:32;22.60;53.60
46932;DHT22;32670;51.464;11.964;2023-12-14T00:28:57;22.60;53.70
46932;DHT22;32670;51.464;11.964;2023-12-14T00:31:22;22.60;53.70
46932;DHT22;32670;51.464;11.964;2023-12-14T00:33:48;22.60;53.80
46932;DHT22;32670;51.464;11.964;2023-12-14T00:36:20;22.60;53.90
46932;DHT22;32670;51.464;11.964;2023-12-14T00:38:45;22.60;54.00
46932;DHT22;32670;51.464;11.964;2023-12-14T00:41:11;22.60;53.90
46932;DHT22;32670;51.464;11.964;2023-12-14T00:43:37;22.60;54.00
46932;DHT22;32670;51.464;11.964;2023-12-14T00:46:03;22.60;54.10
46932;DHT22;32670;51.464;11.964;2023-12-14T00:48:29;22.60;54.10
46932;DHT22;32670;51.464;11.964;2023-12-14T00:50:54;22.60;54.10
46932;DHT22;32670;51.464;11.964;2023-12-14T00:53:20;22.60;54.10
46932;DHT22;32670;51.464;11.964;2023-12-14T00:55:45;22.60;54.10
46932;DHT22;32670;51.464;11.964;2023-12-14T00:58:11;22.60;54.10
46932;DHT22;32670;51.464;11.964;2023-12-14T01:00:38;22.60;54.10
46932;DHT22;32670;51.464;11.964;2023-12-14T01:03:04;22.60;54.30
46932;DHT22;32670;51.464;11.964;2023-12-14T01:05:29;22.60;54.40
46932;DHT22;32670;51.464;11.964;2023-12-14T01:07:55;22.60;54.40
46932;DHT22;32670;51.464;11.964;2023-12-14T01:10:20;22.60;54.50
46932;DHT22;32670;51.464;11.964;2023-12-14T01:12:46;22.60;54.50
46932;DHT22;32670;51.464;11.964;2023-12-14T01:15:11;22.60;54.60
46932;DHT22;32670;51.464;11.964;2023-12-14T01:17:37;22.60;54.50
46932;DHT22;32670;51.464;11.964;2023-12-14T01:20:05;22.60;54.50
46932;DHT22;32670;51.464;11.964;2023-12-14T01:22:32;22.60;54.60
46932;DHT22;32670;51.464;11.964;2023-12-14T01:24:57;22.60;54.70
46932;DHT22;32670;51.464;11.964;2023-12-14T01:27:22;22.60;54.70
46932;DHT22;32670;51.464;11.964;2023-12-14T01:29:48;22.60;54.70
46932;DHT22;32670;51.464;11.964;2023-12-14T01:32:14;22.60;54.70
46932;DHT22;32670;51.464;11.964;2023-12-14T01:34:39;22.60;54.80
46932;DHT22;32670;51.464;11.964;2023-12-14T01:37:05;22.60;54.90
46932;DHT22;32670;51.464;11.964;2023-12-14T01:39:30;22.60;54.90
46932;DHT22;32670;51.464;11.964;2023-12-14T01:41:56;22.60;55.00
46932;DHT22;32670;51.464;11.964;2023-12-14T01:44:21;22.60;55.00
46932;DHT22;32670;51.464;11.964;2023-12-14T01:46:46;22.60;55.10
46932;DHT22;32670;51.464;11.964;2023-12-14T01:49:12;22.60;55.50
46932;DHT22;32670;51.464;11.964;2023-12-14T01:51:37;22.60;55.00
46932;DHT22;32670;51.464;11.964;2023-12-14T01:54:03;22.60;54.50
46932;DHT22;32670;51.464;11.964;2023-12-14T01:56:28;22.60;54.80
46932;DHT22;32670;51.464;11.964;2023-12-14T01:58:54;22.60;55.00
46932;DHT22;32670;51.464;11.964;2023-12-14T02:01:30;22.60;55.00
46932;DHT22;32670;51.464;11.964;2023-12-14T02:04:01;22.60;55.10
46932;DHT22;32670;51.464;11.964;2023-12-14T02:06:26;22.60;55.70
46932;DHT22;32670;51.464;11.964;2023-12-14T02:08:52;22.60;55.20
46932;DHT22;32670;51.464;11.964;2023-12-14T02:11:18;22.60;55.20
46932;DHT22;32670;51.464;11.964;2023-12-14T02:13:43;22.60;55.10
46932;DHT22;32670;51.464;11.964;2023-12-14T02:16:09;22.60;55.20
46932;DHT22;32670;51.464;11.964;2023-12-14T02:18:34;22.70;55.20
46932;DHT22;32670;51.464;11.964;2023-12-14T02:21:00;22.70;55.30
46932;DHT22;32670;51.464;11.964;2023-12-14T02:23:25;22.60;55.20
46932;DHT22;32670;51.464;11.964;2023-12-14T02:25:51;22.60;55.20
46932;DHT22;32670;51.464;11.964;2023-12-14T02:28:16;22.60;55.20
46932;DHT22;32670;51.464;11.964;2023-12-14T02:30:42;22.70;55.30
46932;DHT22;32670;51.464;11.964;2023-12-14T02:33:08;22.70;55.20
46932;DHT22;32670;51.464;11.964;2023-12-14T02:35:33;22.60;55.10
46932;DHT22;32670;51.464;11.964;2023-12-14T02:37:59;22.60;55.30
46932;DHT22;32670;51.464;11.964;2023-12-14T02:40:24;22.60;55.20
46932;DHT22;32670;51.464;11.964;2023-12-14T02:42:50;22.60;55.70
46932;DHT22;32670;51.464;11.964;2023-12-14T02:45:15;22.60;55.20
46932;DHT22;32670;51.464;11.964;2023-12-14T02:47:41;22.60;55.20
46932;DHT22;32670;51.464;11.964;2023-12-14T02:50:06;22.60;55.20
46932;DHT22;32670;51.464;11.964;2023-12-14T02:52:32;22.70;55.40
46932;DHT22;32670;51.464;11.964;2023-12-14T02:54:57;22.70;55.30
46932;DHT22;32670;51.464;11.964;2023-12-14T02:57:23;22.70;55.40
46932;DHT22;32670;51.464;11.964;2023-12-14T02:59:48;22.60;55.40
46932;DHT22;32670;51.464;11.964;2023-12-14T03:02:14;22.70;55.50
46932;DHT22;32670;51.464;11.964;2023-12-14T03:04:39;22.60;55.30
46932;DHT22;32670;51.464;11.964;2023-12-14T03:07:06;22.70;55.40
46932;DHT22;32670;51.464;11.964;2023-12-14T03:09:31;22.60;55.50
46932;DHT22;32670;51.464;11.964;2023-12-14T03:11:57;22.70;55.60
46932;DHT22;32670;51.464;11.964;2023-12-14T03:14:23;22.70;55.60
46932;DHT22;32670;51.464;11.964;2023-12-14T03:16:48;22.60;55.40
46932;DHT22;32670;51.464;11.964;2023-12-14T03:19:14;22.60;55.50
46932;DHT22;32670;51.464;11.964;2023-12-14T03:21:41;22.70;55.50
46932;DHT22;32670;51.464;11.964;2023-12-14T03:24:06;22.60;55.50
46932;DHT22;32670;51.464;11.964;2023-12-14T03:26:32;22.70;55.60
46932;DHT22;32670;51.464;11.964;2023-12-14T03:28:57;22.70;55.70
46932;DHT22;32670;51.464;11.964;2023-12-14T03:31:23;22.70;55.80
46932;DHT22;32670;51.464;11.964;2023-12-14T03:33:48;22.70;55.80
46932;DHT22;32670;51.464;11.964;2023-12-14T03:36:14;22.60;55.80
46932;DHT22;32670;51.464;11.964;2023-12-14T03:38:39;22.70;55.80
46932;DHT22;32670;51.464;11.964;2023-12-14T03:41:05;22.70;55.80
46932;DHT22;32670;51.464;11.964;2023-12-14T03:43:30;22.70;55.80
46932;DHT22;32670;51.464;11.964;2023-12-14T03:45:56;22.70;55.90
46932;DHT22;32670;51.464;11.964;2023-12-14T03:48:21;22.70;55.90
46932;DHT22;32670;51.464;11.964;2023-12-14T03:50:47;22.70;55.90
46932;DHT22;32670;51.464;11.964;2023-12-14T03:53:12;22.70;55.80
46932;DHT22;32670;51.464;11.964;2023-12-14T03:55:38;22.70;55.80
46932;DHT22;32670;51.464;11.964;2023-12-14T03:58:03;22.70;55.80
46932;DHT22;32670;51.464;11.964;2023-12-14T04:00:29;22.70;55.80
46932;DHT22;32670;51.464;11.964;2023-12-14T04:02:54;22.70;55.80
46932;DHT22;32670;51.464;11.964;2023-12-14T04:05:20;22.70;55.80
46932;DHT22;32670;51.464;11.964;2023-12-14T04:07:45;22.70;55.80
46932;DHT22;32670;51.464;11.964;2023-12-14T04:10:11;22.70;55.80
46932;DHT22;32670;51.464;11.964;2023-12-14T04:12:38;22.70;55.90
46932;DHT22;32670;51.464;11.964;2023-12-14T04:15:04;22.70;56.00
46932;DHT22;32670;51.464;11.964;2023-12-14T04:17:31;22.70;55.90
46932;DHT22;32670;51.464;11.964;2023-12-14T04:19:56;22.70;55.90
46932;DHT22;32670;51.464;11.964;2023-12-14T04:22:22;22.70;55.90
46932;DHT22;32670;51.464;11.964;2023-12-14T04:24:47;22.70;56.00
46932;DHT22;32670;51.464;11.964;2023-12-14T04:27:14;22.70;56.10
46932;DHT22;32670;51.464;11.964;2023-12-14T04:29:39;22.70;56.20
46932;DHT22;32670;51.464;11.964;2023-12-14T04:32:05;22.70;56.10
46932;DHT22;32670;51.464;11.964;2023-12-14T04:34:31;22.70;56.10
46932;DHT22;32670;51.464;11.964;2023-12-14T04:36:56;22.70;56.20
46932;DHT22;32670;51.464;11.964;2023-12-14T04:39:23;22.70;56.00
46932;DHT22;32670;51.464;11.964;2023-12-14T04:41:50;22.70;56.10
46932;DHT22;32670;51.464;11.964;2023-12-14T04:44:16;22.70;56.10
46932;DHT22;32670;51.464;11.964;2023-12-14T04:46:41;22.70;56.20
46932;DHT22;32670;51.464;11.964;2023-12-14T04:49:07;22.70;56.20
46932;DHT22;32670;51.464;11.964;2023-12-14T04:51:33;22.70;56.20
46932;DHT22;32670;51.464;11.964;2023-12-14T04:53:58;22.70;56.60
46932;DHT22;32670;51.464;11.964;2023-12-14T04:56:24;22.80;56.40
46932;DHT22;32670;51.464;11.964;2023-12-14T04:58:49;22.70;56.30
46932;DHT22;32670;51.464;11.964;2023-12-14T05:01:17;22.70;56.30
46932;DHT22;32670;51.464;11.964;2023-12-14T05:03:43;22.70;56.40
46932;DHT22;32670;51.464;11.964;2023-12-14T05:06:08;22.70;56.30
46932;DHT22;32670;51.464;11.964;2023-12-14T05:08:34;22.70;56.40
46932;DHT22;32670;51.464;11.964;2023-12-14T05:10:59;22.80;56.40
46932;DHT22;32670;51.464;11.964;2023-12-14T05:13:25;22.70;56.60
46932;DHT22;32670;51.464;11.964;2023-12-14T05:15:51;22.80;56.80
46932;DHT22;32670;51.464;11.964;2023-12-14T05:18:17;22.80;56.30
46932;DHT22;32670;51.464;11.964;2023-12-14T05:20:43;22.70;56.40
46932;DHT22;32670;51.464;11.964;2023-12-14T05:23:11;22.70;56.10
46932;DHT22;32670;51.464;11.964;2023-12-14T05:25:36;22.70;56.20
46932;DHT22;32670;51.464;11.964;2023-12-14T05:28:01;22.80;56.30
46932;DHT22;32670;51.464;11.964;2023-12-14T05:30:27;22.80;56.30
46932;DHT22;32670;51.464;11.964;2023-12-14T05:32:52;22.80;56.40
46932;DHT22;32670;51.464;11.964;2023-12-14T05:35:18;22.80;56.90
46932;DHT22;32670;51.464;11.964;2023-12-14T05:37:43;22.80;56.20
46932;DHT22;32670;51.464;11.964;2023-12-14T05:40:10;22.80;56.40
46932;DHT22;32670;51.464;11.964;2023-12-14T05:42:35;22.80;56.30
46932;DHT22;32670;51.464;11.964;2023-12-14T05:45:01;22.80;56.20
46932;DHT22;32670;51.464;11.964;2023-12-14T05:47:27;22.80;55.30
46932;DHT22;32670;51.464;11.964;2023-12-14T05:49:52;22.70;53.20
46932;DHT22;32670;51.464;11.964;2023-12-14T05:52:17;22.60;52.00
46932;DHT22;32670;51.464;11.964;2023-12-14T05:54:43;22.50;51.40
46932;DHT22;32670;51.464;11.964;2023-12-14T05:57:08;22.40;50.30
46932;DHT22;32670;51.464;11.964;2023-12-14T05:59:34;22.30;49.10
46932;DHT22;32670;51.464;11.964;2023-12-14T06:02:00;22.20;48.90
46932;DHT22;32670;51.464;11.964;2023-12-14T06:04:27;22.10;48.50
46932;DHT22;32670;51.464;11.964;2023-12-14T06:06:53;22.00;48.20
46932;DHT22;32670;51.464;11.964;2023-12-14T06:09:19;22.00;47.80
46932;DHT22;32670;51.464;11.964;2023-12-14T06:11:47;22.00;47.90
46932;DHT22;32670;51.464;11.964;2023-12-14T06:14:13;21.90;47.60
46932;DHT22;32670;51.464;11.964;2023-12-14T06:16:38;21.90;47.30
46932;DHT22;32670;51.464;11.964;2023-12-14T06:19:04;21.90;47.10
46932;DHT22;32670;51.464;11.964;2023-12-14T06:21:29;21.80;46.50
46932;DHT22;32670;51.464;11.964;2023-12-14T06:23:56;21.80;47.10
46932;DHT22;32670;51.464;11.964;2023-12-14T06:26:22;21.70;46.10
46932;DHT22;32670;51.464;11.964;2023-12-14T06:28:48;21.70;46.00
46932;DHT22;32670;51.464;11.964;2023-12-14T06:31:14;21.70;46.10
46932;DHT22;32670;51.464;11.964;2023-12-14T06:33:40;21.70;45.90
46932;DHT22;32670;51.464;11.964;2023-12-14T06:36:07;21.60;45.70
46932;DHT22;32670;51.464;11.964;2023-12-14T06:38:33;21.60;45.30
46932;DHT22;32670;51.464;11.964;2023-12-14T06:40:58;21.50;45.20
46932;DHT22;32670;51.464;11.964;2023-12-14T06:43:24;21.50;45.20
46932;DHT22;32670;51.464;11.964;2023-12-14T06:45:49;21.50;45.20
46932;DHT22;32670;51.464;11.964;2023-12-14T06:48:15;21.50;45.10
46932;DHT22;32670;51.464;11.964;2023-12-14T06:50:40;21.40;45.10
46932;DHT22;32670;51.464;11.964;2023-12-14T06:53:06;21.40;44.90
46932;DHT22;32670;51.464;11.964;2023-12-14T06:55:31;21.40;44.90
46932;DHT22;32670;51.464;11.964;2023-12-14T06:57:57;21.40;44.80
46932;DHT22;32670;51.464;11.964;2023-12-14T07:00:22;21.30;44.70
46932;DHT22;32670;51.464;11.964;2023-12-14T07:02:48;21.30;44.50
46932;DHT22;32670;51.464;11.964;2023-12-14T07:05:13;21.30;45.10
46932;DHT22;32670;51.464;11.964;2023-12-14T07:07:40;21.30;45.00
46932;DHT22;32670;51.464;11.964;2023-12-14T07:10:06;21.30;44.80
46932;DHT22;32670;51.464;11.964;2023-12-14T07:12:31;21.30;44.90
46932;DHT22;32670;51.464;11.964;2023-12-14T07:14:57;21.30;44.60
46932;DHT22;32670;51.464;11.964;2023-12-14T07:17:22;21.30;44.50
46932;DHT22;32670;51.464;11.964;2023-12-14T07:19:47;21.30;44.50
46932;DHT22;32670;51.464;11.964;2023-12-14T07:22:13;21.30;44.80
46932;DHT22;32670;51.464;11.964;2023-12-14T07:24:38;21.30;44.20
46932;DHT22;32670;51.464;11.964;2023-12-14T07:27:04;21.20;43.70
46932;DHT22;32670;51.464;11.964;2023-12-14T07:29:29;21.20;44.80
46932;DHT22;32670;51.464;11.964;2023-12-14T07:31:55;21.20;44.80
46932;DHT22;32670;51.464;11.964;2023-12-14T07:34:20;21.30;45.10
46932;DHT22;32670;51.464;11.964;2023-12-14T07:36:46;21.30;45.20
46932;DHT22;32670;51.464;11.964;2023-12-14T07:39:12;21.40;45.40
46932;DHT22;32670;51.464;11.964;2023-12-14T07:41:37;21.40;45.50
46932;DHT22;32670;51.464;11.964;2023-12-14T07:44:03;21.40;45.70
46932;DHT22;32670;51.464;11.964;2023-12-14T07:46:29;21.50;46.40
46932;DHT22;32670;51.464;11.964;2023-12-14T07:48:55;21.50;45.90
46932;DHT22;32670;51.464;11.964;2023-12-14T07:51:20;21.50;46.00
46932;DHT22;32670;51.464;11.964;2023-12-14T07:53:46;21.50;46.10
46932;DHT22;32670;51.464;11.964;2023-12-14T07:56:12;21.50;46.20
46932;DHT22;32670;51.464;11.964;2023-12-14T07:58:37;21.60;46.30
46932;DHT22;32670;51.464;11.964;2023-12-14T08:01:03;21.60;46.40
46932;DHT22;32670;51.464;11.964;2023-12-14T08:03:28;21.60;46.50
46932;DHT22;32670;51.464;11.964;2023-12-14T08:05:54;21.60;46.50
46932;DHT22;32670;51.464;11.964;2023-12-14T08:08:19;21.60;46.30
46932;DHT22;32670;51.464;11.964;2023-12-14T08:10:45;21.60;46.70
46932;DHT22;32670;51.464;11.964;2023-12-14T08:13:10;21.60;46.70
46932;DHT22;32670;51.464;11.964;2023-12-14T08:15:36;21.60;46.70
46932;DHT22;32670;51.464;11.964;2023-12-14T08:18:02;21.60;46.80
46932;DHT22;32670;51.464;11.964;2023-12-14T08:20:27;21.60;46.90
46932;DHT22;32670;51.464;11.964;2023-12-14T08:22:53;21.60;47.00
46932;DHT22;32670;51.464;11.964;2023-12-14T08:25:18;21.60;47.10
46932;DHT22;32670;51.464;11.964;2023-12-14T08:27:44;21.60;47.10
46932;DHT22;32670;51.464;11.964;2023-12-14T08:30:11;21.60;47.10
46932;DHT22;32670;51.464;11.964;2023-12-14T08:32:36;21.60;47.20
46932;DHT22;32670;51.464;11.964;2023-12-14T08:35:02;21.60;47.20
46932;DHT22;32670;51.464;11.964;2023-12-14T08:37:27;21.70;47.20
46932;DHT22;32670;51.464;11.964;2023-12-14T08:39:53;21.70;47.30
46932;DHT22;32670;51.464;11.964;2023-12-14T08:42:18;21.70;47.30
46932;DHT22;32670;51.464;11.964;2023-12-14T08:44:44;21.70;47.40
46932;DHT22;32670;51.464;11.964;2023-12-14T08:47:09;21.70;47.40
46932;DHT22;32670;51.464;11.964;2023-12-14T08:49:35;21.70;47.40
46932;DHT22;32670;51.464;11.964;2023-12-14T08:52:01;21.70;47.40
46932;DHT22;32670;51.464;11.964;2023-12-14T08:54:27;21.70;47.50
46932;DHT22;32670;51.464;11.964;2023-12-14T08:56:52;21.70;47.50
46932;DHT22;32670;51.464;11.964;2023-12-14T08:59:17;21.70;47.50
46932;DHT22;32670;51.464;11.964;2023-12-14T09:01:45;21.70;47.50
46932;DHT22;32670;51.464;11.964;2023-12-14T09:04:10;21.70;47.50
46932;DHT22;32670;51.464;11.964;2023-12-14T09:06:36;21.70;47.50
46932;DHT22;32670;51.464;11.964;2023-12-14T09:09:01;21.70;47.50
46932;DHT22;32670;51.464;11.964;2023-12-14T09:11:27;21.70;47.60
46932;DHT22;32670;51.464;11.964;2023-12-14T09:13:53;21.70;47.60
46932;DHT22;32670;51.464;11.964;2023-12-14T09:16:18;21.60;47.60
46932;DHT22;32670;51.464;11.964;2023-12-14T09:18:44;21.70;47.60
46932;DHT22;32670;51.464;11.964;2023-12-14T09:21:09;21.70;47.60
46932;DHT22;32670;51.464;11.964;2023-12-14T09:23:35;21.70;47.70
46932;DHT22;32670;51.464;11.964;2023-12-14T09:26:00;21.70;47.70
46932;DHT22;32670;51.464;11.964;2023-12-14T09:28:26;21.70;47.70
46932;DHT22;32670;51.464;11.964;2023-12-14T09:30:54;21.70;47.70
46932;DHT22;32670;51.464;11.964;2023-12-14T09:33:20;21.70;47.70
46932;DHT22;32670;51.464;11.964;2023-12-14T09:35:45;21.70;47.70
46932;DHT22;32670;51.464;11.964;2023-12-14T09:38:11;21.70;47.70
46932;DHT22;32670;51.464;11.964;2023-12-14T09:40:39;21.70;47.70
46932;DHT22;32670;51.464;11.964;2023-12-14T09:43:05;21.70;47.70
46932;DHT22;32670;51.464;11.964;2023-12-14T09:45:31;21.70;47.60
46932;DHT22;32670;51.464;11.964;2023-12-14T09:48:00;21.70;47.70
46932;DHT22;32670;51.464;11.964;2023-12-14T09:50:26;21.70;47.70
46932;DHT22;32670;51.464;11.964;2023-12-14T09:52:52;21.70;47.80
46932;DHT22;32670;51.464;11.964;2023-12-14T09:55:17;21.70;47.80
46932;DHT22;32670;51.464;11.964;2023-12-14T09:57:43;21.70;47.80
46932;DHT22;32670;51.464;11.964;2023-12-14T10:00:09;21.70;47.80
46932;DHT22;32670;51.464;11.964;2023-12-14T10:02:39;21.70;47.80
46932;DHT22;32670;51.464;11.964;2023-12-14T10:05:09;21.70;47.80
46932;DHT22;32670;51.464;11.964;2023-12-14T10:07:42;21.70;47.80
46932;DHT22;32670;51.464;11.964;2023-12-14T10:10:11;21.70;47.80
46932;DHT22;32670;51.464;11.964;2023-12-14T10:12:51;21.70;47.80
46932;DHT22;32670;51.464;11.964;2023-12-14T10:15:18;21.70;47.80
46932;DHT22;32670;51.464;11.964;2023-12-14T10:17:43;21.70;47.80
46932;DHT22;32670;51.464;11.964;2023-12-14T10:20:09;21.60;47.70
46932;DHT22;32670;51.464;11.964;2023-12-14T10:22:35;21.60;48.00
46932;DHT22;32670;51.464;11.964;2023-12-14T10:25:02;21.70;47.80
46932;DHT22;32670;51.464;11.964;2023-12-14T10:27:29;21.70;48.40
46932;DHT22;32670;51.464;11.964;2023-12-14T10:29:56;21.70;48.50
46932;DHT22;32670;51.464;11.964;2023-12-14T10:32:22;21.70;48.20
46932;DHT22;32670;51.464;11.964;2023-12-14T10:34:48;21.70;48.00
46932;DHT22;32670;51.464;11.964;2023-12-14T10:37:14;21.70;48.00
46932;DHT22;32670;51.464;11.964;2023-12-14T10:39:42;21.70;48.00
46932;DHT22;32670;51.464;11.964;2023-12-14T10:42:09;21.70;47.90
46932;DHT22;32670;51.464;11.964;2023-12-14T10:44:36;21.70;47.90
46932;DHT22;32670;51.464;11.964;2023-12-14T10:47:02;21.70;48.00
46932;DHT22;32670;51.464;11.964;2023-12-14T10:49:29;21.70;48.00
46932;DHT22;32670;51.464;11.964;2023-12-14T10:51:57;21.70;48.00
46932;DHT22;32670;51.464;11.964;2023-12-14T10:54:24;21.70;48.00
46932;DHT22;32670;51.464;11.964;2023-12-14T10:56:54;21.70;48.00
46932;DHT22;32670;51.464;11.964;2023-12-14T10:59:20;21.70;48.00
46932;DHT22;32670;51.464;11.964;2023-12-14T11:01:52;21.70;48.00
46932;DHT22;32670;51.464;11.964;2023-12-14T11:04:18;21.70;47.90
46932;DHT22;32670;51.464;11.964;2023-12-14T11:06:46;21.70;48.00
46932;DHT22;32670;51.464;11.964;2023-12-14T11:09:13;21.70;48.00
46932;DHT22;32670;51.464;11.964;2023-12-14T11:14:23;21.70;48.00
46932;DHT22;32670;51.464;11.964;2023-12-14T11:16:50;21.70;47.90
46932;DHT22;32670;51.464;11.964;2023-12-14T11:24:31;21.70;47.90
46932;DHT22;32670;51.464;11.964;2023-12-14T11:26:56;21.70;47.90
46932;DHT22;32670;51.464;11.964;2023-12-14T11:29:22;21.70;47.90
46932;DHT22;32670;51.464;11.964;2023-12-14T11:31:48;21.70;47.90
46932;DHT22;32670;51.464;11.964;2023-12-14T11:34:16;21.70;47.90
46932;DHT22;32670;51.464;11.964;2023-12-14T11:36:42;21.70;47.90
46932;DHT22;32670;51.464;11.964;2023-12-14T11:39:09;21.70;47.90
46932;DHT22;32670;51.464;11.964;2023-12-14T11:41:35;21.70;47.90
46932;DHT22;32670;51.464;11.964;2023-12-14T11:44:00;21.70;48.20
46932;DHT22;32670;51.464;11.964;2023-12-14T11:46:26;21.70;48.10
46932;DHT22;32670;51.464;11.964;2023-12-14T11:48:51;21.70;47.90
46932;DHT22;32670;51.464;11.964;2023-12-14T11:51:18;21.70;47.80
46932;DHT22;32670;51.464;11.964;2023-12-14T11:53:47;21.70;47.80
46932;DHT22;32670;51.464;11.964;2023-12-14T11:56:16;21.70;47.90
46932;DHT22;32670;51.464;11.964;2023-12-14T11:58:43;21.70;47.90
46932;DHT22;32670;51.464;11.964;2023-12-14T12:01:17;21.70;47.90
46932;DHT22;32670;51.464;11.964;2023-12-14T12:03:44;21.70;47.80
46932;DHT22;32670;51.464;11.964;2023-12-14T12:06:27;21.70;47.80
46932;DHT22;32670;51.464;11.964;2023-12-14T12:08:55;21.70;47.80
46932;DHT22;32670;51.464;11.964;2023-12-14T12:11:23;21.70;47.90
46932;DHT22;32670;51.464;11.964;2023-12-14T12:13:53;21.70;47.80
46932;DHT22;32670;51.464;11.964;2023-12-14T12:16:18;21.70;47.80
46932;DHT22;32670;51.464;11.964;2023-12-14T12:18:44;21.70;47.80
46932;DHT22;32670;51.464;11.964;2023-12-14T12:21:11;21.70;47.80
46932;DHT22;32670;51.464;11.964;2023-12-14T12:23:37;21.70;47.80
46932;DHT22;32670;51.464;11.964;2023-12-14T12:26:02;21.70;47.70
46932;DHT22;32670;51.464;11.964;2023-12-14T12:28:29;21.70;47.70
46932;DHT22;32670;51.464;11.964;2023-12-14T12:30:55;21.70;47.80
46932;DHT22;32670;51.464;11.964;2023-12-14T12:33:21;21.70;47.80
46932;DHT22;32670;51.464;11.964;2023-12-14T12:35:46;21.70;47.80
46932;DHT22;32670;51.464;11.964;2023-12-14T12:38:11;21.70;47.80
46932;DHT22;32670;51.464;11.964;2023-12-14T12:40:37;21.70;47.70
46932;DHT22;32670;51.464;11.964;2023-12-14T12:43:03;21.70;47.80
46932;DHT22;32670;51.464;11.964;2023-12-14T12:45:29;21.70;47.80
46932;DHT22;32670;51.464;11.964;2023-12-14T12:47:55;21.70;47.70
46932;DHT22;32670;51.464;11.964;2023-12-14T12:50:20;21.70;47.70
46932;DHT22;32670;51.464;11.964;2023-12-14T12:52:46;21.70;47.70
46932;DHT22;32670;51.464;11.964;2023-12-14T12:55:14;21.70;47.70
46932;DHT22;32670;51.464;11.964;2023-12-14T12:57:39;21.70;47.70
46932;DHT22;32670;51.464;11.964;2023-12-14T13:00:07;21.70;47.70
46932;DHT22;32670;51.464;11.964;2023-12-14T13:02:42;21.70;47.70
46932;DHT22;32670;51.464;11.964;2023-12-14T13:05:09;21.70;47.70
46932;DHT22;32670;51.464;11.964;2023-12-14T13:07:35;21.70;47.70
46932;DHT22;32670;51.464;11.964;2023-12-14T13:10:02;21.70;47.80
46932;DHT22;32670;51.464;11.964;2023-12-14T13:12:29;21.70;47.70
46932;DHT22;32670;51.464;11.964;2023-12-14T13:14:54;21.70;47.70
46932;DHT22;32670;51.464;11.964;2023-12-14T13:17:20;21.60;47.60
46932;DHT22;32670;51.464;11.964;2023-12-14T13:19:45;21.70;47.60
46932;DHT22;32670;51.464;11.964;2023-12-14T13:22:11;21.70;47.70
46932;DHT22;32670;51.464;11.964;2023-12-14T13:24:37;21.70;47.60
46932;DHT22;32670;51.464;11.964;2023-12-14T13:27:03;21.60;47.60
46932;DHT22;32670;51.464;11.964;2023-12-14T13:29:29;21.70;47.60
46932;DHT22;32670;51.464;11.964;2023-12-14T13:31:56;21.60;47.60
46932;DHT22;32670;51.464;11.964;2023-12-14T13:34:21;21.70;47.60
46932;DHT22;32670;51.464;11.964;2023-12-14T13:36:47;21.70;47.60
46932;DHT22;32670;51.464;11.964;2023-12-14T13:39:12;21.70;47.60
46932;DHT22;32670;51.464;11.964;2023-12-14T13:41:38;21.60;47.60
46932;DHT22;32670;51.464;11.964;2023-12-14T13:44:03;21.60;47.50
46932;DHT22;32670;51.464;11.964;2023-12-14T13:46:29;21.60;47.50
46932;DHT22;32670;51.464;11.964;2023-12-14T13:48:54;21.60;47.50
46932;DHT22;32670;51.464;11.964;2023-12-14T13:51:20;21.60;47.50
46932;DHT22;32670;51.464;11.964;2023-12-14T13:53:45;21.60;47.50
46932;DHT22;32670;51.464;11.964;2023-12-14T13:56:11;21.70;47.50
46932;DHT22;32670;51.464;11.964;2023-12-14T13:58:36;21.70;47.60
46932;DHT22;32670;51.464;11.964;2023-12-14T14:01:04;21.60;47.90
46932;DHT22;32670;51.464;11.964;2023-12-14T14:03:33;21.60;47.70
46932;DHT22;32670;51.464;11.964;2023-12-14T14:05:58;21.60;47.60
46932;DHT22;32670;51.464;11.964;2023-12-14T14:08:24;21.60;47.50
46932;DHT22;32670;51.464;11.964;2023-12-14T14:10:49;21.60;47.60
46932;DHT22;32670;51.464;11.964;2023-12-14T14:13:14;21.60;47.50
46932;DHT22;32670;51.464;11.964;2023-12-14T14:15:40;21.70;47.50
46932;DHT22;32670;51.464;11.964;2023-12-14T14:18:06;21.60;47.60
46932;DHT22;32670;51.464;11.964;2023-12-14T14:20:31;21.60;47.60
46932;DHT22;32670;51.464;11.964;2023-12-14T14:22:57;21.70;47.60
46932;DHT22;32670;51.464;11.964;2023-12-14T14:25:25;21.60;47.50
46932;DHT22;32670;51.464;11.964;2023-12-14T14:27:50;21.70;47.60
46932;DHT22;32670;51.464;11.964;2023-12-14T14:30:16;21.60;47.50
46932;DHT22;32670;51.464;11.964;2023-12-14T14:32:41;21.60;47.60
46932;DHT22;32670;51.464;11.964;2023-12-14T14:35:07;21.60;47.50
46932;DHT22;32670;51.464;11.964;2023-12-14T14:37:33;21.60;47.50
46932;DHT22;32670;51.464;11.964;2023-12-14T14:39:59;21.60;47.50
46932;DHT22;32670;51.464;11.964;2023-12-14T14:42:24;21.70;47.60
46932;DHT22;32670;51.464;11.964;2023-12-14T14:44:50;21.60;47.60
46932;DHT22;32670;51.464;11.964;2023-12-14T14:47:15;21.60;48.10
46932;DHT22;32670;51.464;11.964;2023-12-14T14:49:41;21.60;47.60
46932;DHT22;32670;51.464;11.964;2023-12-14T14:52:06;21.60;47.50
46932;DHT22;32670;51.464;11.964;2023-12-14T14:54:32;21.60;47.60
46932;DHT22;32670;51.464;11.964;2023-12-14T14:56:57;21.60;47.50
46932;DHT22;32670;51.464;11.964;2023-12-14T14:59:23;21.60;48.30
46932;DHT22;32670;51.464;11.964;2023-12-14T15:01:48;21.60;48.10
46932;DHT22;32670;51.464;11.964;2023-12-14T15:04:14;21.60;47.90
46932;DHT22;32670;51.464;11.964;2023-12-14T15:06:39;21.60;47.80
46932;DHT22;32670;51.464;11.964;2023-12-14T15:09:08;21.60;47.80
46932;DHT22;32670;51.464;11.964;2023-12-14T15:11:33;21.60;47.80
46932;DHT22;32670;51.464;11.964;2023-12-14T15:13:59;21.60;47.70
46932;DHT22;32670;51.464;11.964;2023-12-14T15:16:24;21.60;47.70